createdAt,value
2018-11-29T00:00:32.147Z,9.64
2018-11-29T00:01:32.163Z,9.68
2018-11-29T00:02:32.188Z,9.70
2018-11-29T00:03:32.217Z,9.66
2018-11-29T00:04:32.236Z,9.75
2018-11-29T00:05:32.209Z,9.75
2018-11-29T00:06:32.226Z,9.78
2018-11-29T00:07:32.240Z,9.81
2018-11-29T00:08:32.254Z,9.79
2018-11-29T00:09:32.265Z,9.82
2018-11-29T00:10:32.282Z,9.81
2018-11-29T00:11:32.293Z,9.75
2018-11-29T00:12:32.314Z,9.96
2018-11-29T00:13:32.323Z,9.94
2018-11-29T00:14:32.338Z,9.89
2018-11-29T00:15:32.352Z,9.86
2018-11-29T00:16:32.364Z,10.00
2018-11-29T00:17:32.379Z,9.97
2018-11-29T00:18:32.389Z,9.91
2018-11-29T00:19:32.404Z,9.97
2018-11-29T00:20:32.416Z,9.86
2018-11-29T00:21:32.434Z,9.99
2018-11-29T00:22:32.448Z,9.97
2018-11-29T00:23:32.460Z,9.97
2018-11-29T00:24:32.473Z,9.97
2018-11-29T00:25:32.487Z,9.88
2018-11-29T00:26:32.501Z,9.96
2018-11-29T00:27:32.521Z,9.97
2018-11-29T00:28:32.531Z,10.06
2018-11-29T00:29:32.550Z,10.01
2018-11-29T00:30:32.559Z,10.04
2018-11-29T00:31:32.570Z,9.96
2018-11-29T00:32:32.583Z,9.96
2018-11-29T00:33:32.605Z,10.01
2018-11-29T00:34:32.613Z,9.99
2018-11-29T00:35:32.630Z,9.99
2018-11-29T00:36:32.642Z,9.99
2018-11-29T00:37:32.654Z,10.01
2018-11-29T00:38:32.667Z,9.94
2018-11-29T00:39:32.685Z,9.88
2018-11-29T00:40:32.696Z,9.93
2018-11-29T00:41:32.709Z,9.93
2018-11-29T00:42:32.725Z,9.96
2018-11-29T00:43:32.739Z,9.94
2018-11-29T00:44:32.785Z,10.01
2018-11-29T00:45:32.768Z,10.00
2018-11-29T00:46:32.799Z,10.00
2018-11-29T00:47:32.794Z,10.00
2018-11-29T00:48:32.808Z,10.00
2018-11-29T00:49:32.825Z,10.00
2018-11-29T00:50:32.838Z,10.01
2018-11-29T00:51:32.856Z,10.04
2018-11-29T00:52:32.864Z,10.09
2018-11-29T00:53:32.879Z,10.10
2018-11-29T00:54:32.895Z,10.07
2018-11-29T00:55:32.908Z,10.01
2018-11-29T00:56:32.927Z,10.00
2018-11-29T00:57:32.939Z,10.12
2018-11-29T00:58:32.950Z,10.10
2018-11-29T00:59:33.007Z,10.01
2018-11-29T01:00:32.985Z,10.00
2018-11-29T01:01:32.992Z,10.06
2018-11-29T01:02:33.007Z,10.04
2018-11-29T01:03:33.018Z,10.09
2018-11-29T01:04:33.037Z,10.04
2018-11-29T01:05:33.067Z,10.07
2018-11-29T01:06:33.060Z,10.15
2018-11-29T01:07:33.074Z,10.15
2018-11-29T01:08:33.089Z,10.17
2018-11-29T01:09:33.104Z,10.14
2018-11-29T01:10:33.115Z,10.17
2018-11-29T01:11:33.131Z,10.12
2018-11-29T01:12:33.154Z,10.14
2018-11-29T01:13:33.159Z,10.15
2018-11-29T01:14:33.173Z,10.10
2018-11-29T01:15:33.194Z,10.18
2018-11-29T01:16:33.200Z,10.15
2018-11-29T01:17:33.222Z,10.19
2018-11-29T01:18:33.233Z,10.21
2018-11-29T01:19:33.242Z,10.15
2018-11-29T01:20:33.258Z,10.17
2018-11-29T01:21:33.279Z,10.14
2018-11-29T01:22:33.287Z,10.21
2018-11-29T01:23:33.301Z,10.21
2018-11-29T01:24:33.315Z,10.18
2018-11-29T01:25:33.330Z,10.22
2018-11-29T01:26:33.344Z,10.22
2018-11-29T01:27:33.358Z,10.19
2018-11-29T01:28:33.372Z,10.24
2018-11-29T01:29:33.383Z,10.28
2018-11-29T01:30:33.405Z,10.19
2018-11-29T01:31:33.414Z,10.25
2018-11-29T01:32:33.429Z,10.25
2018-11-29T01:33:33.445Z,10.33
2018-11-29T01:34:33.464Z,10.25
2018-11-29T01:35:33.468Z,10.26
2018-11-29T01:36:33.486Z,10.25
2018-11-29T01:37:33.499Z,10.33
2018-11-29T01:38:33.517Z,10.36
2018-11-29T01:39:33.537Z,10.21
2018-11-29T01:40:33.547Z,10.22
2018-11-29T01:41:33.555Z,10.22
2018-11-29T01:42:33.571Z,10.28
2018-11-29T01:43:33.582Z,10.25
2018-11-29T01:44:33.601Z,10.26
2018-11-29T01:45:33.658Z,10.33
2018-11-29T01:46:33.626Z,10.32
2018-11-29T01:47:33.641Z,10.26
2018-11-29T01:48:33.653Z,10.46
2018-11-29T01:49:33.669Z,10.40
2018-11-29T01:50:33.681Z,10.34
2018-11-29T01:51:33.709Z,10.34
2018-11-29T01:52:33.712Z,10.34
2018-11-29T01:53:33.732Z,10.39
2018-11-29T01:54:33.748Z,10.40
2018-11-29T01:55:33.763Z,10.34
2018-11-29T01:56:33.773Z,10.43
2018-11-29T01:57:33.787Z,10.33
2018-11-29T01:58:33.800Z,10.34
2018-11-29T01:59:33.813Z,10.33
2018-11-29T02:00:33.829Z,10.24
2018-11-29T02:01:33.839Z,10.30
2018-11-29T02:02:33.859Z,10.34
2018-11-29T02:03:33.898Z,10.30
2018-11-29T02:04:33.883Z,10.32
2018-11-29T02:05:33.896Z,10.34
2018-11-29T02:06:33.917Z,10.33
2018-11-29T02:07:33.925Z,10.28
2018-11-29T02:08:33.961Z,10.25
2018-11-29T02:09:33.966Z,10.18
2018-11-29T02:10:33.967Z,10.30
2018-11-29T02:11:34.000Z,10.36
2018-11-29T02:12:34.004Z,10.22
2018-11-29T02:13:34.013Z,10.25
2018-11-29T02:14:34.050Z,10.28
2018-11-29T02:15:34.044Z,10.32
2018-11-29T02:16:34.056Z,10.33
2018-11-29T02:17:34.071Z,10.24
2018-11-29T02:18:34.083Z,10.26
2018-11-29T02:19:34.094Z,10.30
2018-11-29T02:20:34.112Z,10.28
2018-11-29T02:21:34.126Z,10.39
2018-11-29T02:22:34.149Z,10.33
2018-11-29T02:23:34.152Z,10.39
2018-11-29T02:24:34.170Z,10.28
2018-11-29T02:25:34.186Z,10.26
2018-11-29T02:26:34.198Z,10.32
2018-11-29T02:27:34.218Z,10.36
2018-11-29T02:28:34.225Z,10.32
2018-11-29T02:29:34.238Z,10.26
2018-11-29T02:30:34.253Z,10.32
2018-11-29T02:31:34.265Z,10.30
2018-11-29T02:32:34.279Z,10.37
2018-11-29T02:33:34.300Z,10.30
2018-11-29T02:34:34.309Z,10.26
2018-11-29T02:35:34.322Z,10.25
2018-11-29T02:36:34.349Z,10.39
2018-11-29T02:37:34.357Z,10.22
2018-11-29T02:38:34.368Z,10.19
2018-11-29T02:39:34.385Z,10.19
2018-11-29T02:40:34.394Z,10.21
2018-11-29T02:41:34.411Z,10.24
2018-11-29T02:42:34.424Z,10.33
2018-11-29T02:43:34.436Z,10.26
2018-11-29T02:44:34.450Z,10.39
2018-11-29T02:45:34.465Z,10.17
2018-11-29T02:46:34.497Z,10.14
2018-11-29T02:47:34.492Z,10.15
2018-11-29T02:48:34.512Z,10.21
2018-11-29T02:49:34.527Z,10.21
2018-11-29T02:50:34.539Z,10.10
2018-11-29T02:51:34.553Z,10.19
2018-11-29T02:52:34.562Z,10.17
2018-11-29T02:53:34.577Z,10.14
2018-11-29T02:54:34.596Z,10.24
2018-11-29T02:55:34.611Z,10.22
2018-11-29T02:56:34.634Z,10.28
2018-11-29T02:57:34.639Z,10.19
2018-11-29T02:58:34.650Z,10.21
2018-11-29T02:59:34.663Z,10.15
2018-11-29T03:00:34.688Z,10.24
2018-11-29T03:01:34.691Z,10.22
2018-11-29T03:02:34.717Z,10.19
2018-11-29T03:03:34.723Z,10.19
2018-11-29T03:04:34.744Z,10.19
2018-11-29T03:05:34.755Z,10.15
2018-11-29T03:06:34.764Z,10.33
2018-11-29T03:07:34.776Z,10.34
2018-11-29T03:08:34.796Z,10.33
2018-11-29T03:39:10.185Z,10.22
2018-11-29T03:40:10.166Z,10.25
2018-11-29T03:42:02.069Z,10.26
2018-11-29T03:43:02.068Z,10.33
2018-11-29T03:44:53.992Z,10.26
2018-11-29T03:45:53.972Z,10.22
2018-11-29T03:47:45.875Z,10.22
2018-11-29T03:48:45.885Z,10.18
2018-11-29T03:50:37.809Z,10.25
2018-11-29T03:51:37.793Z,10.37
2018-11-29T03:53:29.699Z,10.28
2018-11-29T03:54:29.698Z,10.28
2018-11-29T03:56:21.667Z,10.33
2018-11-29T03:57:21.647Z,10.28
2018-11-29T03:59:13.573Z,10.22
2018-11-29T04:00:13.552Z,10.25
2018-11-29T04:02:05.462Z,10.33
2018-11-29T04:03:05.470Z,10.30
2018-11-29T04:04:57.400Z,10.33
2018-11-29T04:05:57.385Z,10.32
2018-11-29T04:07:49.796Z,10.37
2018-11-29T04:08:49.803Z,10.33
2018-11-29T04:10:41.741Z,10.34
2018-11-29T04:11:41.732Z,10.33
2018-11-29T04:13:33.636Z,10.36
2018-11-29T04:14:33.692Z,10.43
2018-11-29T04:16:25.578Z,10.34
2018-11-29T04:17:25.576Z,10.36
2018-11-29T04:19:17.501Z,10.42
2018-11-29T04:20:17.492Z,10.36
2018-11-29T04:22:09.413Z,10.40
2018-11-29T04:23:09.413Z,10.43
2018-11-29T04:25:01.469Z,10.43
2018-11-29T04:26:01.337Z,10.32
2018-11-29T04:27:53.243Z,10.44
2018-11-29T04:28:53.250Z,10.34
2018-11-29T04:30:45.179Z,10.37
2018-11-29T04:31:45.170Z,10.34
2018-11-29T04:33:37.087Z,10.32
2018-11-29T04:34:37.092Z,10.37
2018-11-29T04:36:29.020Z,10.37
2018-11-29T04:37:29.012Z,10.43
2018-11-29T04:39:20.942Z,10.39
2018-11-29T04:40:20.934Z,10.42
2018-11-29T04:42:12.847Z,10.36
2018-11-29T04:43:12.856Z,10.40
2018-11-29T04:45:04.810Z,10.32
2018-11-29T04:46:04.802Z,10.37
2018-11-29T04:47:57.219Z,10.33
2018-11-29T04:48:57.228Z,10.40
2018-11-29T04:50:49.853Z,10.34
2018-11-29T04:51:49.143Z,10.28
2018-11-29T04:53:41.083Z,10.43
2018-11-29T04:54:41.090Z,10.33
2018-11-29T04:56:33.053Z,10.28
2018-11-29T04:57:33.020Z,10.25
2018-11-29T04:59:25.464Z,10.34
2018-11-29T05:00:25.448Z,10.28
2018-11-29T05:02:17.387Z,10.26
2018-11-29T05:03:17.397Z,10.19
2018-11-29T05:05:09.322Z,10.17
2018-11-29T05:06:09.317Z,10.19
2018-11-29T05:08:01.224Z,10.25
2018-11-29T05:09:01.238Z,10.36
2018-11-29T05:10:53.167Z,10.34
2018-11-29T05:11:53.152Z,10.36
2018-11-29T05:13:45.090Z,10.21
2018-11-29T05:14:45.097Z,10.25
2018-11-29T05:16:37.035Z,10.24
2018-11-29T05:17:37.025Z,10.18
2018-11-29T05:19:29.442Z,10.22
2018-11-29T05:20:29.431Z,10.18
2018-11-29T05:22:21.356Z,10.22
2018-11-29T05:23:21.366Z,10.18
2018-11-29T05:25:13.324Z,10.21
2018-11-29T05:26:13.315Z,10.21
2018-11-29T05:28:05.233Z,10.22
2018-11-29T05:29:05.247Z,10.21
2018-11-29T05:30:57.191Z,10.17
2018-11-29T05:31:57.179Z,10.19
2018-11-29T05:33:49.121Z,10.18
2018-11-29T05:34:49.123Z,10.24
2018-11-29T05:36:41.065Z,10.21
2018-11-29T05:37:41.050Z,10.22
2018-11-29T05:39:33.017Z,10.22
2018-11-29T05:40:32.983Z,10.17
2018-11-29T05:42:24.899Z,10.25
2018-11-29T05:43:24.915Z,10.26
2018-11-29T05:45:16.835Z,10.25
2018-11-29T05:46:16.819Z,10.14
2018-11-29T05:48:08.781Z,10.14
2018-11-29T05:49:08.786Z,10.07
2018-11-29T05:51:00.723Z,10.21
2018-11-29T05:52:00.706Z,10.14
2018-11-29T05:53:52.614Z,10.12
2018-11-29T05:54:52.621Z,10.17
2018-11-29T05:56:44.553Z,10.12
2018-11-29T05:57:44.542Z,10.22
2018-11-29T05:59:36.488Z,10.19
2018-11-29T06:00:36.460Z,10.21
2018-11-29T06:02:28.370Z,10.21
2018-11-29T06:03:28.378Z,10.19
2018-11-29T06:05:20.310Z,10.21
2018-11-29T06:06:20.322Z,10.19
2018-11-29T06:08:12.223Z,10.15
2018-11-29T06:09:12.219Z,10.14
2018-11-29T06:11:04.170Z,10.06
2018-11-29T06:12:04.151Z,10.18
2018-11-29T06:13:56.121Z,9.97
2018-11-29T06:14:56.071Z,10.03
2018-11-29T06:16:47.997Z,9.93
2018-11-29T06:17:47.988Z,9.86
2018-11-29T06:19:39.904Z,9.93
2018-11-29T06:20:39.906Z,9.85
2018-11-29T06:22:31.837Z,9.81
2018-11-29T06:23:31.822Z,9.66
2018-11-29T06:25:23.751Z,9.71
2018-11-29T06:26:23.739Z,9.73
2018-11-29T06:28:15.658Z,9.76
2018-11-29T06:29:15.666Z,9.73
2018-11-29T06:31:07.602Z,9.83
2018-11-29T06:32:07.592Z,9.76
2018-11-29T06:33:59.507Z,9.71
2018-11-29T06:34:59.518Z,9.71
2018-11-29T06:36:51.447Z,9.82
2018-11-29T06:37:51.431Z,9.64
2018-11-29T06:39:43.352Z,9.73
2018-11-29T06:40:43.358Z,9.71
2018-11-29T06:42:35.291Z,9.85
2018-11-29T06:43:35.273Z,9.76
2018-11-29T06:45:27.211Z,9.75
2018-11-29T06:46:27.255Z,9.70
2018-11-29T06:48:19.162Z,9.71
2018-11-29T06:49:19.174Z,9.68
2018-11-29T06:51:11.054Z,9.67
2018-11-29T06:52:11.040Z,9.63
2018-11-29T06:54:02.979Z,9.50
2018-11-29T06:55:02.958Z,9.50
2018-11-29T06:56:54.930Z,9.52
2018-11-29T06:57:54.904Z,9.48
2018-11-29T06:59:47.007Z,9.35
2018-11-29T07:00:47.018Z,9.43
2018-11-29T07:02:38.963Z,9.25
2018-11-29T07:03:38.947Z,9.34
2018-11-29T07:05:30.881Z,9.32
2018-11-29T07:06:30.871Z,9.16
2018-11-29T07:08:22.806Z,9.21
2018-11-29T07:09:22.807Z,9.20
2018-11-29T07:11:14.755Z,9.24
2018-11-29T07:12:14.721Z,9.23
2018-11-29T07:14:06.629Z,9.18
2018-11-29T07:15:06.635Z,9.25
2018-11-29T07:16:58.585Z,9.28
2018-11-29T07:17:58.558Z,9.27
2018-11-29T07:19:50.461Z,9.27
2018-11-29T07:20:50.469Z,9.23
2018-11-29T07:22:42.407Z,9.31
2018-11-29T07:23:42.394Z,9.28
2018-11-29T07:25:34.343Z,9.27
2018-11-29T07:26:34.333Z,9.24
2018-11-29T07:28:26.251Z,9.42
2018-11-29T07:29:26.271Z,9.45
2018-11-29T07:31:18.162Z,9.34
2018-11-29T07:32:18.152Z,9.45
2018-11-29T07:34:10.074Z,9.35
2018-11-29T07:35:10.070Z,9.38
2018-11-29T07:37:01.996Z,9.25
2018-11-29T07:38:01.983Z,9.27
2018-11-29T07:39:53.885Z,9.40
2018-11-29T07:40:53.914Z,9.39
2018-11-29T07:41:53.911Z,9.43
2018-11-29T07:42:53.926Z,9.39
2018-11-29T07:43:53.998Z,9.46
2018-11-29T07:44:53.947Z,9.45
2018-11-29T07:45:53.962Z,9.50
2018-11-29T07:46:53.988Z,9.42
2018-11-29T07:47:53.999Z,9.49
2018-11-29T07:48:54.004Z,9.42
2018-11-29T07:49:54.018Z,9.42
2018-11-29T07:50:54.031Z,9.39
2018-11-29T07:51:54.081Z,9.48
2018-11-29T07:52:54.089Z,9.45
2018-11-29T07:53:54.071Z,9.52
2018-11-29T07:54:54.084Z,9.48
2018-11-29T07:55:54.102Z,9.42
2018-11-29T07:56:54.111Z,9.39
2018-11-29T07:57:54.145Z,9.43
2018-11-29T07:58:54.140Z,9.35
2018-11-29T07:59:54.187Z,9.38
2018-11-29T08:00:54.182Z,9.32
2018-11-29T08:01:54.212Z,9.39
2018-11-29T08:02:54.203Z,9.32
2018-11-29T08:03:54.245Z,9.30
2018-11-29T08:04:54.220Z,9.28
2018-11-29T08:05:54.235Z,9.25
2018-11-29T08:06:54.252Z,9.27
2018-11-29T08:07:54.260Z,9.38
2018-11-29T08:08:54.303Z,9.30
2018-11-29T08:09:54.291Z,9.43
2018-11-29T08:10:54.335Z,9.32
2018-11-29T08:11:54.319Z,9.40
2018-11-29T08:12:54.332Z,9.38
2018-11-29T08:13:54.347Z,9.31
2018-11-29T08:14:54.359Z,9.39
2018-11-29T08:15:54.395Z,9.38
2018-11-29T08:16:54.384Z,9.42
2018-11-29T08:17:54.400Z,9.30
2018-11-29T08:18:54.418Z,9.38
2018-11-29T08:19:54.449Z,9.35
2018-11-29T08:20:54.443Z,9.40
2018-11-29T08:21:54.465Z,9.40
2018-11-29T08:22:54.466Z,9.35
2018-11-29T08:23:54.490Z,9.48
2018-11-29T08:24:54.537Z,9.49
2018-11-29T08:25:54.510Z,9.43
2018-11-29T08:26:54.522Z,9.42
2018-11-29T08:27:54.538Z,9.53
2018-11-29T08:28:54.564Z,9.50
2018-11-29T08:29:54.563Z,9.52
2018-11-29T08:30:54.600Z,9.61
2018-11-29T08:31:54.654Z,9.66
2018-11-29T08:32:54.606Z,9.68
2018-11-29T08:33:54.622Z,9.68
2018-11-29T08:34:54.637Z,9.61
2018-11-29T08:35:54.653Z,9.60
2018-11-29T08:36:54.675Z,9.58
2018-11-29T08:37:54.678Z,9.57
2018-11-29T08:38:54.688Z,9.58
2018-11-29T08:39:54.706Z,9.71
2018-11-29T08:40:54.722Z,9.71
2018-11-29T08:41:54.784Z,9.73
2018-11-29T08:42:54.751Z,9.85
2018-11-29T08:43:54.765Z,9.75
2018-11-29T08:44:54.826Z,9.81
2018-11-29T08:45:54.792Z,9.88
2018-11-29T08:46:54.805Z,9.81
2018-11-29T08:47:54.821Z,9.83
2018-11-29T08:48:54.843Z,9.82
2018-11-29T08:49:54.847Z,9.86
2018-11-29T08:50:54.882Z,9.94
2018-11-29T08:51:54.874Z,9.86
2018-11-29T08:52:54.884Z,9.78
2018-11-29T08:53:54.905Z,9.89
2018-11-29T08:56:44.458Z,9.82
